Latest Coastal Weather Observations for Montague Island

IDN60701

Issued at 10:11 pm EST Friday 29 April 2016 (issued every 10 minutes, with the page automatically refreshed every 10 minutes)

About coastal observations | Map of coastal stations | Coastal observations for NSW | Marine services | Other Formats
Station Details ID: 069017 Name: MONTAGUE ISLAND LIGHTHOUSE Lat: -36.25 Lon: 150.23 Height: 52.0 m
Data from the previous 72 hours. | See also: Recent months at Montague Island
Date/Time
EST
Temp

°C
Wind Pressure Rain
since 9am
mm
Weather Cloud Vis
km
Sea
Height
m
Swell
Dir
 
Speed
knots
Gust
knots
hPa Trend Height
m
Period
s
Dir
29/10:00pm 21.6 N 15 20 1015.9 - 0.0 - - - - - - -
29/09:30pm 21.3 N 15 20 1016.2 - 0.0 - - - - - - -
29/09:00pm 20.9 N 12 17 1016.1 - 0.0 - - - - - - -
29/08:30pm 21.1 N 12 16 1015.9 - 0.0 - - - - - - -
29/08:00pm 21.3 N 12 17 1015.8 - 0.0 - - - - - - -
29/07:30pm 21.4 N 15 21 1015.8 - 0.0 - - - - - - -
29/07:00pm 21.5 N 17 23 1015.8 - 0.0 - - - - - - -
29/06:30pm 21.5 NNE 18 22 1015.7 - 0.0 - - - - - - -
29/06:00pm 21.5 NNE 17 21 1015.6 - 0.0 - - - - - - -
29/05:30pm 21.6 NNE 16 19 1015.6 - 0.0 - - - - - - -
29/05:00pm 21.7 N 14 19 1015.6 - 0.0 - - - - - - -
29/04:30pm 21.9 NNE 21 25 1015.1 - 0.0 - - - - - - -
29/04:00pm 22.0 NNE 21 25 1015.1 - 0.0 - - - - - - -
29/03:30pm 21.8 NNE 20 25 1015.1 - 0.0 - - - - - - -
29/03:00pm 22.1 NNE 22 27 1015.0 - 0.0 - - - - - - -
29/02:30pm 21.9 NNE 22 27 1015.3 - 0.0 - - - - - - -
29/02:00pm 21.8 NNE 21 26 1015.6 - 0.0 - - - - - - -
29/01:30pm 22.2 NNE 21 25 1015.8 - 0.0 - - - - - - -
29/01:00pm 22.5 NNE 15 18 1016.3 - 0.0 - - - - - - -
29/12:30pm 22.7 NNE 14 18 1016.9 - 0.0 - - - - - - -
29/12:00pm 22.6 N 15 21 1017.5 - 0.0 - - - - - - -
29/11:30am 22.1 N 12 15 1018.2 - 0.0 - - - - - - -
29/11:00am 21.1 NNE 13 16 1018.6 - 0.0 - - - - - - -
29/10:30am 20.7 N 11 14 1019.4 - 0.0 - - - - - - -
29/10:00am 20.4 N 11 15 1019.4 - 0.0 - - - - - - -
29/09:30am 20.6 N 12 14 1019.8 - 0.0 - - - - - - -
29/09:00am 19.8 N 12 16 1020.1 - 0.0 - - - - - - -
29/08:30am 19.0 NNW 11 15 1020.3 - 0.0 - - - - - - -
29/08:00am 18.6 NNW 10 12 1020.3 - 0.0 - - - - - - -
29/07:30am 18.8 NW 10 12 1020.4 - 0.0 - - - - - - -
29/07:00am 18.9 NNW 11 14 1020.0 - 0.0 - - - - - - -
29/06:30am 18.5 NNW 12 16 1019.7 - 0.0 - - - - - - -
29/06:00am 17.8 NW 10 12 1019.6 - 0.0 - - - - - - -
29/05:30am 18.7 NNW 11 13 1019.4 - 0.0 - - - - - - -
29/05:00am 18.3 N 11 13 1019.3 - 0.0 - - - - - - -
29/04:30am 18.4 N 11 14 1019.6 - 0.0 - - - - - - -
29/04:00am 18.6 NNW 9 12 1019.5 - 0.0 - - - - - - -
29/03:30am 18.5 N 9 11 1019.4 - 0.0 - - - - - - -
29/03:00am 18.6 NW 8 10 1019.5 - 0.0 - - - - - - -
29/02:30am 18.3 NNW 9 11 1019.7 - 0.0 - - - - - - -
29/02:00am 18.6 NW 9 11 1020.1 - 0.0 - - - - - - -
29/01:30am 18.6 N 6 9 1020.2 - 0.0 - - - - - - -
29/01:00am 18.7 NW 6 7 1020.3 - 0.0 - - - - - - -
29/12:30am 19.2 N 6 7 1020.3 - 0.0 - - - - - - -
29/12:00am 19.2 N 6 9 1020.4 - 0.0 - - - - - - -
 
Date/Time
EST
Temp

°C
Wind Pressure Rain
since 9am
mm
Weather Cloud Vis
km
Sea
Height
m
Swell
Dir
 
Speed
knots
Gust
knots
hPa Trend Height
m
Period
s
Dir
28/11:30pm 19.3 NNW 6 7 1020.4 - 0.0 - - - - - - -
28/11:00pm 19.4 NW 5 6 1020.7 - 0.0 - - - - - - -
28/10:30pm 20.1 N 6 9 1020.8 - 0.0 - - - - - - -
28/10:00pm 21.0 N 8 11 1020.7 - 0.0 - - - - - - -
28/09:30pm 21.1 NNE 10 12 1020.8 - 0.0 - - - - - - -
28/09:00pm 21.5 NNE 12 14 1020.8 - 0.0 - - - - - - -
28/08:30pm 21.4 NNE 14 17 1020.7 - 0.0 - - - - - - -
28/08:00pm 20.9 N 9 15 1020.5 - 0.0 - - - - - - -
28/07:30pm 20.9 NW 6 9 1020.6 - 0.0 - - - - - - -
28/07:00pm 21.1 N 11 14 1020.5 - 0.0 - - - - - - -
28/06:30pm 21.0 N 8 10 1020.5 - 0.0 - - - - - - -
28/06:00pm 21.1 N 8 11 1020.3 - 0.0 - - - - - - -
28/05:30pm 21.1 N 9 11 1020.0 - 0.0 - - - - - - -
28/05:00pm 21.3 N 9 12 1019.7 - 0.0 - - - - - - -
28/04:30pm 21.4 NNE 11 14 1019.4 - 0.0 - - - - - - -
28/04:00pm 21.5 NNE 12 14 1019.4 - 0.0 - - - - - - -
28/03:30pm 21.8 NNE 11 13 1019.3 - 0.0 - - - - - - -
28/03:00pm 21.9 NE 9 12 1019.4 - 0.0 - - - - - - -
28/02:30pm 22.0 NNE 8 10 1019.5 - 0.0 - - - - - - -
28/02:00pm 22.4 N 7 10 1019.7 - 0.0 - - - - - - -
28/01:30pm 22.3 N 6 9 1019.8 - 0.0 - - - - - - -
28/01:00pm 22.0 N 7 11 1020.1 - 0.0 - - - - - - -
28/12:30pm 21.6 N 7 11 1020.3 - 0.0 - - - - - - -
28/12:00pm 21.4 NNW 9 13 1020.7 - 0.0 - - - - - - -
28/11:30am 20.2 NNW 9 13 1021.2 - 0.0 - - - - - - -
28/11:00am 19.2 N 10 13 1021.5 - 0.0 - - - - - - -
28/10:30am 19.5 N 9 12 1021.6 - 0.0 - - - - - - -
28/10:00am 19.0 N 8 11 1021.7 - 0.0 - - - - - - -
28/09:30am 18.4 N 9 12 1021.9 - 0.0 - - - - - - -
28/09:00am 18.3 N 9 12 1022.0 - 0.0 - - - - - - -
28/08:30am 17.7 NNW 9 12 1021.8 - 0.0 - - - - - - -
28/08:00am 18.1 NNW 9 13 1021.8 - 0.0 - - - - - - -
28/07:30am 17.6 N 11 15 1021.4 - 0.0 - - - - - - -
28/07:00am 17.4 N 10 13 1021.0 - 0.0 - - - - - - -
28/06:30am 17.6 NNW 10 13 1021.1 - 0.0 - - - - - - -
28/06:00am 17.8 NNW 10 13 1020.9 - 0.0 - - - - - - -
28/05:30am 17.7 NNW 9 13 1020.9 - 0.0 - - - - - - -
28/05:00am 17.9 N 12 15 1020.7 - 0.0 - - - - - - -
28/04:30am 18.1 NNW 10 14 1020.8 - 0.0 - - - - - - -
28/04:00am 18.7 NNW 12 17 1020.6 - 0.0 - - - - - - -
28/03:30am 18.6 N 15 19 1020.5 - 0.0 - - - - - - -
28/03:00am 18.4 NNW 9 13 1020.7 - 0.0 - - - - - - -
28/02:30am 17.8 N 11 14 1020.8 - 0.0 - - - - - - -
28/02:00am 17.5 NNW 9 13 1021.1 - 0.0 - - - - - - -
28/01:30am 18.3 NNW 14 20 1021.0 - 0.0 - - - - - - -
28/01:00am 19.1 N 16 20 1020.7 - 0.0 - - - - - - -
28/12:30am 18.8 N 17 21 1020.7 - 0.0 - - - - - - -
28/12:00am 18.7 N 15 21 1020.9 - 0.0 - - - - - - -
 
Date/Time
EST
Temp

°C
Wind Pressure Rain
since 9am
mm
Weather Cloud Vis
km
Sea
Height
m
Swell
Dir
 
Speed
knots
Gust
knots
hPa Trend Height
m
Period
s
Dir
27/11:30pm 18.9 N 17 21 1020.9 - 0.0 - - - - - - -
27/11:00pm 18.9 NNW 12 16 1021.2 - 0.0 - - - - - - -
27/10:30pm 19.4 N 15 21 1021.5 - 0.0 - - - - - - -
27/10:00pm 19.6 N 15 22 1021.5 - 0.0 - - - - - - -
27/09:30pm 19.7 N 16 21 1021.7 - 0.0 - - - - - - -
27/09:00pm 19.9 N 20 27 1021.7 - 0.0 - - - - - - -
27/08:30pm 20.2 N 22 31 1021.6 - 0.0 - - - - - - -
27/08:22pm 20.2 N 20 31 1021.6 - 0.0 - - - - - - -
27/08:00pm 20.4 N 22 30 1021.5 - 0.0 - - - - - - -
27/07:30pm 20.5 N 21 29 1021.6 - 0.0 - - - - - - -
27/07:00pm 20.7 N 23 30 1021.6 - 0.0 - - - - - - -
27/06:30pm 20.9 N 26 33 1021.5 - 0.0 - - - - - - -
27/06:00pm 21.0 NNE 29 35 1020.9 - 0.0 - - - - - - -
27/05:30pm 21.1 NNE 24 31 1020.8 - 0.0 - - - - - - -
27/05:00pm 21.1 NNE 23 30 1020.4 - 0.0 - - - - - - -
27/04:30pm 21.1 NNE 24 31 1020.5 - 0.0 - - - - - - -
27/04:00pm 21.2 NNE 25 31 1020.4 - 0.0 - - - - - - -
27/03:30pm 21.4 NNE 24 29 1020.7 - 0.0 - - - - - - -
27/03:00pm 21.4 NNE 22 28 1020.6 - 0.0 - - - - - - -
27/02:30pm 21.7 NNE 22 27 1020.6 - 0.0 - - - - - - -
27/02:00pm 21.6 NNE 23 28 1020.7 - 0.0 - - - - - - -
27/01:30pm 21.5 NNE 21 26 1021.3 - 0.0 - - - - - - -
27/01:00pm 21.4 NNE 21 25 1021.7 - 0.0 - - - - - - -
27/12:30pm 21.6 N 18 24 1022.2 - 0.0 - - - - - - -
27/12:00pm 21.4 N 18 22 1022.6 - 0.0 - - - - - - -
27/11:30am 21.4 N 17 25 1022.9 - 0.0 - - - - - - -
27/11:00am 21.0 N 20 27 1023.4 - 0.0 - - - - - - -
27/10:30am 20.6 N 20 28 1023.7 - 0.0 - - - - - - -
27/10:00am 20.1 N 20 26 1024.3 - 0.0 - - - - - - -
27/09:30am 20.1 N 19 24 1024.8 - 0.0 - - - - - - -
27/09:00am 19.6 N 19 23 1025.0 - 0.0 - - - - - - -
27/08:30am 19.2 NNW 21 27 1025.1 - 0.0 - - - - - - -
27/08:00am 18.8 N 19 23 1024.9 - 0.0 - - - - - - -
27/07:30am 18.1 N 17 22 1025.0 - 0.0 - - - - - - -
27/07:00am 16.9 NNW 12 16 1025.0 - 0.0 - - - - - - -
27/06:30am 16.8 NNW 11 15 1024.9 - 0.0 - - - - - - -
27/06:00am 17.0 NNW 12 16 1024.8 - 0.0 - - - - - - -
27/05:30am 17.1 NNW 12 16 1024.7 - 0.0 - - - - - - -
27/05:00am 17.3 NNW 12 17 1024.6 - 0.0 - - - - - - -
27/04:30am 17.6 NNW 13 17 1024.5 - 0.0 - - - - - - -
27/04:00am 17.4 N 14 17 1024.4 - 0.0 - - - - - - -
27/03:30am 17.5 N 13 18 1024.6 - 0.0 - - - - - - -
27/03:00am 17.5 NNW 12 17 1024.8 - 0.0 - - - - - - -
27/02:30am 17.5 NNW 13 18 1025.0 - 0.0 - - - - - - -
27/02:00am 17.6 NNW 13 19 1025.4 - 0.0 - - - - - - -
27/01:30am 17.9 N 17 21 1025.5 - 0.0 - - - - - - -
27/01:00am 18.0 N 16 21 1025.6 - 0.0 - - - - - - -
27/12:30am 17.8 N 16 21 1025.8 - 0.0 - - - - - - -
27/12:00am 17.7 N 14 20 1026.0 - 0.0 - - - - - - -
 
Date/Time
EST
Temp

°C
Wind Pressure Rain
since 9am
mm
Weather Cloud Vis
km
Sea
Height
m
Swell
Dir
 
Speed
knots
Gust
knots
hPa Trend Height
m
Period
s
Dir
26/11:30pm 18.7 N 17 22 1026.1 - 0.0 - - - - - - -
26/11:00pm 19.7 N 19 26 1026.2 - 0.0 - - - - - - -
26/10:30pm 19.7 N 19 25 1026.3 - 0.0 - - - - - - -

Other Formats:

Comma delimited format used in spreadsheet applications
http://www.bom.gov.au/fwo/IDN60701/IDN60701.94939.axf

JavaScript Object Notation format (JSON) in row-major order
http://www.bom.gov.au/fwo/IDN60701/IDN60701.94939.json